Camden, AL (36726)

7:16 AM CST on December 21, 2014 (GMT -0600)
Greenville Municipal | Change Station
CLOSE
Current Station
Airport
Location: Greenville,
Elevation: 449 ft
Nearby Weather Stations

Elev 449 ft 31.85 °N, 86.61 °W | Updated 7 minutes ago

Overcast
Overcast
52 °F
Feels Like 52 °F
N
5
Wind Variable Wind from ENE

Today
High -- | Low -- °F
--% Chance of Precip.
Yesterday
High -- | Low -- °F
Precip. -- in
6:45 AM 4:49 PM
Waning Crescent, 0% visible
Pressure 30.12 in
Visibility 2.5 miles
Clouds Overcast 200 ft
Dew Point 48 °F
Humidity 88%
Rainfall 0.00 in
Snow Depth Not available.
UV 0 out of 12
Pollen .40 out of 12
Air Quality Not available.
Flu Activity Not available.
SPECI KPRN 211309Z AUTO 07004KT 2 1/2SM BR OVC002 11/09 A3012 RMK AO2

More Conditions Fewer Conditions

Pressure 30.12 in
Visibility 2.5 miles
Clouds Overcast 200 ft
Dew Point 48 °F
Humidity 88%
Rainfall 0.00 in
Snow Depth Not available.
UV 0 out of 12
Pollen .40 out of 12
Air Quality Not available.
Flu Activity Not available.
SPECI KPRN 211309Z AUTO 07004KT 2 1/2SM BR OVC002 11/09 A3012 RMK AO2

More Conditions Fewer Conditions

10-Day Weather Forecast

Almanac

Astronomy

Dec. 21, 2014 Rise Set
Actual Time
Civil Twilight
Nautical Twilight
Astronomical Twilight
Moon
Length of Visible Light
Length of Day
Tomorrow will be .
, % of the Moon is Illuminated

Today's Extremes

State Highs State Lows

Community

WunderPhotos

Upload Photos

1,779,373 photos uploaded!

WunderBlogs® & News

Nearby

Air Quality

  Air Quality AQ Index Pollutant
Not available.

Snow Depth

Station Depth Elevation

Earthquake Activity

City Distance Mag. Time & Date
Minimum magnitude displayed is 2.5.

Coastal Water Temperatures

Place Temperature

Nearby Weather Stations